Time;durP1;ratioP1;P1;durP2;ratioP2;P2;SDS_P1;SDS_P2;PMS_P1;PMS_P2;Temp;Humidity;BMP_temperature;BMP_pressure;BME280_temperature;BME280_humidity;BME280_pressure;Samples;Min_cycle;Max_cycle;Signal;HPM_P1;HPM_P2
2021/05/21 00:01:58;;;;;;;6.53;5.93;;;11.50;99.90;;;;;;5050086;28;20067;-68
2021/05/21 00:04:27;;;;;;;7.85;5.45;;;11.50;99.90;;;;;;5047356;28;20372;-67
2021/05/21 00:06:54;;;;;;;8.18;6.57;;;11.40;99.90;;;;;;5041727;28;20062;-67
2021/05/21 00:09:22;;;;;;;8.45;6.72;;;11.40;99.90;;;;;;5046436;28;20048;-67
2021/05/21 00:11:49;;;;;;;6.95;6.20;;;11.40;99.90;;;;;;5047890;28;20553;-67
2021/05/21 00:14:20;;;;;;;6.60;6.00;;;11.30;99.90;;;;;;5047586;28;20044;-67
2021/05/21 00:16:48;;;;;;;7.47;5.78;;;11.30;99.90;;;;;;5049166;28;20057;-67
2021/05/21 00:19:15;;;;;;;5.93;5.13;;;11.20;99.90;;;;;;5047024;28;20465;-66
2021/05/21 00:21:43;;;;;;;6.88;5.43;;;11.30;99.90;;;;;;5048160;28;20104;-67
2021/05/21 00:24:11;;;;;;;7.55;5.40;;;11.20;99.90;;;;;;5021897;28;20057;-67
2021/05/21 00:26:38;;;;;;;7.57;5.22;;;11.30;99.90;;;;;;5049499;28;20057;-67
2021/05/21 00:29:06;;;;;;;5.47;5.00;;;11.30;99.90;;;;;;5052930;28;20140;-68
2021/05/21 00:31:34;;;;;;;5.95;5.32;;;11.30;99.90;;;;;;5051281;28;20091;-68
2021/05/21 00:34:11;;;;;;;5.80;5.30;;;11.20;99.90;;;;;;5050225;28;20056;-67
2021/05/21 00:36:38;;;;;;;6.65;5.95;;;11.20;99.90;;;;;;5053427;28;20045;-67
2021/05/21 00:39:06;;;;;;;5.55;5.05;;;11.20;99.90;;;;;;5048739;28;20045;-67
2021/05/21 00:41:34;;;;;;;5.70;5.10;;;11.20;99.90;;;;;;5050757;28;20395;-67
2021/05/21 00:44:01;;;;;;;5.63;5.13;;;11.20;99.90;;;;;;5048378;28;20041;-67
2021/05/21 00:46:29;;;;;;;5.55;4.97;;;11.10;99.90;;;;;;5049633;28;20055;-67
2021/05/21 00:48:56;;;;;;;6.05;4.93;;;11.10;99.90;;;;;;5049676;28;20033;-67
2021/05/21 00:51:24;;;;;;;5.68;5.07;;;11.10;99.90;;;;;;5047775;28;20052;-67
2021/05/21 00:53:52;;;;;;;6.30;4.80;;;11.00;99.90;;;;;;5049121;28;20049;-67
2021/05/21 00:56:19;;;;;;;4.93;4.43;;;10.90;99.90;;;;;;5051290;28;20052;-67
2021/05/21 00:58:47;;;;;;;5.32;4.82;;;10.90;99.90;;;;;;5046946;28;20522;-67
2021/05/21 01:01:16;;;;;;;5.05;4.55;;;10.90;99.90;;;;;;5049742;28;20122;-67
2021/05/21 01:03:43;;;;;;;5.35;4.85;;;10.80;99.90;;;;;;5047202;28;20056;-67
2021/05/21 01:06:12;;;;;;;9.60;7.15;;;10.70;99.90;;;;;;5047912;28;20123;-67
2021/05/21 01:08:40;;;;;;;7.50;6.68;;;10.70;99.90;;;;;;5049922;28;20056;-67
2021/05/21 01:11:09;;;;;;;12.00;9.43;;;10.70;99.90;;;;;;5050931;28;20533;-68
2021/05/21 01:13:36;;;;;;;8.70;6.07;;;10.70;99.90;;;;;;5050529;28;20053;-67
2021/05/21 01:16:04;;;;;;;5.72;5.18;;;10.60;99.90;;;;;;5035625;28;20483;-67
2021/05/21 01:18:32;;;;;;;5.07;4.53;;;10.60;99.90;;;;;;5049303;28;20055;-67
2021/05/21 01:20:59;;;;;;;5.97;4.93;;;10.60;99.90;;;;;;5032752;28;20472;-67
2021/05/21 01:23:28;;;;;;;8.55;4.60;;;10.60;99.90;;;;;;5049809;28;20052;-67
2021/05/21 01:25:55;;;;;;;5.65;4.88;;;10.60;99.90;;;;;;5038668;28;20503;-67
2021/05/21 01:28:23;;;;;;;7.38;4.93;;;10.60;99.90;;;;;;5049219;28;20194;-67
2021/05/21 01:30:51;;;;;;;5.65;5.05;;;10.50;99.90;;;;;;5049722;28;20045;-67
2021/05/21 01:33:19;;;;;;;6.22;4.50;;;10.50;99.90;;;;;;5048674;28;20056;-69
2021/05/21 01:35:47;;;;;;;6.68;4.85;;;10.50;99.90;;;;;;5049831;28;20098;-67
2021/05/21 01:38:14;;;;;;;6.93;4.68;;;10.60;99.90;;;;;;5049303;28;20045;-67
2021/05/21 01:40:45;;;;;;;5.60;4.80;;;10.60;99.90;;;;;;5047611;28;20048;-68
2021/05/21 01:43:13;;;;;;;5.47;4.75;;;10.70;99.90;;;;;;5049085;28;20123;-68
2021/05/21 01:45:41;;;;;;;5.80;5.20;;;10.70;99.90;;;;;;5062872;28;20542;-67
2021/05/21 01:48:11;;;;;;;5.18;4.63;;;10.70;99.90;;;;;;5030870;28;20050;-67
2021/05/21 01:50:39;;;;;;;5.15;4.45;;;10.70;99.90;;;;;;5047452;28;20132;-67
2021/05/21 01:53:10;;;;;;;4.95;4.45;;;10.70;99.90;;;;;;5064467;28;20033;-67
2021/05/21 01:55:38;;;;;;;5.32;4.72;;;10.70;99.90;;;;;;5050878;28;20519;-67
2021/05/21 01:58:06;;;;;;;6.40;4.63;;;10.80;99.90;;;;;;5050959;28;20045;-67
2021/05/21 02:00:33;;;;;;;4.95;4.47;;;10.80;99.90;;;;;;5051894;28;20043;-67
2021/05/21 02:03:00;;;;;;;5.05;4.55;;;10.70;99.90;;;;;;5048749;28;20060;-67
2021/05/21 02:05:28;;;;;;;5.38;4.78;;;10.70;99.90;;;;;;5051493;28;20049;-67
2021/05/21 02:07:55;;;;;;;4.50;4.10;;;10.70;99.90;;;;;;5037302;28;20049;-67
2021/05/21 02:10:23;;;;;;;4.80;4.30;;;10.80;99.90;;;;;;5049936;28;20041;-67
2021/05/21 02:12:50;;;;;;;5.45;4.95;;;10.80;99.90;;;;;;5051593;28;20488;-67
2021/05/21 02:15:18;;;;;;;4.95;4.45;;;10.80;99.90;;;;;;5050495;28;20091;-67
2021/05/21 02:17:45;;;;;;;5.10;4.60;;;10.80;99.90;;;;;;5050692;28;20099;-67
2021/05/21 02:20:13;;;;;;;7.28;4.70;;;10.90;99.90;;;;;;5050483;28;20049;-67
2021/05/21 02:22:41;;;;;;;4.93;4.40;;;10.90;99.90;;;;;;5046549;28;20057;-67
2021/05/21 02:25:10;;;;;;;5.32;4.80;;;10.90;99.90;;;;;;5050068;28;20041;-67
2021/05/21 02:27:38;;;;;;;11.55;6.95;;;10.80;99.90;;;;;;5049360;28;20065;-67
2021/05/21 02:30:10;;;;;;;6.75;5.70;;;10.80;99.90;;;;;;5048985;28;20057;-67
2021/05/21 02:32:39;;;;;;;5.05;4.63;;;10.80;99.90;;;;;;5048576;28;20059;-67
2021/05/21 02:35:09;;;;;;;5.00;4.50;;;10.80;99.90;;;;;;5050271;28;20623;-67
2021/05/21 02:37:36;;;;;;;5.95;4.72;;;10.80;99.90;;;;;;5048976;28;20071;-67
2021/05/21 02:40:05;;;;;;;5.15;4.63;;;10.70;99.90;;;;;;5065313;28;20041;-67
2021/05/21 02:42:32;;;;;;;5.07;4.60;;;10.70;99.90;;;;;;5050629;28;20060;-67
2021/05/21 02:45:00;;;;;;;5.45;4.82;;;10.70;99.90;;;;;;5050358;28;20099;-67
2021/05/21 02:47:31;;;;;;;5.32;4.82;;;10.70;99.90;;;;;;5049989;28;20573;-67
2021/05/21 02:49:58;;;;;;;6.40;4.78;;;10.70;99.90;;;;;;5048896;28;20052;-67
2021/05/21 02:52:26;;;;;;;5.35;4.85;;;10.60;99.90;;;;;;5048744;28;20143;-67
2021/05/21 02:54:55;;;;;;;7.28;5.55;;;10.60;99.90;;;;;;5047708;28;20066;-67
2021/05/21 02:57:24;;;;;;;6.13;5.10;;;10.70;99.90;;;;;;5050917;28;20049;-67
2021/05/21 02:59:53;;;;;;;5.50;4.88;;;10.70;99.90;;;;;;5051043;28;20091;-67
2021/05/21 03:02:22;;;;;;;5.50;5.00;;;10.70;99.90;;;;;;5050739;28;20045;-68
2021/05/21 03:04:53;;;;;;;7.05;5.75;;;10.70;99.90;;;;;;5050128;28;20049;-67
2021/05/21 03:07:21;;;;;;;5.43;4.93;;;10.70;99.90;;;;;;5047728;28;20108;-67
2021/05/21 03:09:48;;;;;;;4.68;4.28;;;10.70;99.90;;;;;;5048203;28;20052;-67
2021/05/21 03:12:16;;;;;;;6.32;5.10;;;10.70;99.90;;;;;;5051909;28;20048;-67
2021/05/21 03:14:43;;;;;;;5.85;4.95;;;10.70;99.90;;;;;;5050516;28;20037;-67
2021/05/21 03:17:10;;;;;;;6.53;4.82;;;10.70;99.90;;;;;;5049738;28;20072;-67
2021/05/21 03:19:38;;;;;;;6.38;4.78;;;10.80;99.90;;;;;;5047919;28;20091;-67
2021/05/21 03:22:07;;;;;;;5.32;4.82;;;10.80;99.90;;;;;;5046220;28;20045;-67
2021/05/21 03:24:35;;;;;;;6.18;5.03;;;10.70;99.90;;;;;;5046409;28;20053;-67
2021/05/21 03:27:03;;;;;;;5.40;4.90;;;10.70;99.90;;;;;;5048739;28;20049;-67
2021/05/21 03:29:30;;;;;;;6.30;4.65;;;10.80;99.90;;;;;;5050328;28;20045;-67
2021/05/21 03:31:57;;;;;;;7.90;4.85;;;10.70;99.90;;;;;;5048330;28;20053;-67
2021/05/21 03:34:25;;;;;;;5.47;4.90;;;10.70;99.90;;;;;;5048474;28;20052;-67
2021/05/21 03:36:52;;;;;;;5.35;4.68;;;10.80;99.90;;;;;;5046204;28;20056;-67
2021/05/21 03:39:20;;;;;;;6.85;5.15;;;10.80;99.90;;;;;;5045250;28;20045;-67
2021/05/21 03:41:47;;;;;;;5.60;5.00;;;10.80;99.90;;;;;;5047538;28;20070;-67
2021/05/21 03:44:15;;;;;;;5.25;4.75;;;10.80;99.90;;;;;;5050284;28;20182;-67
2021/05/21 03:46:42;;;;;;;5.40;4.90;;;10.80;99.90;;;;;;5049585;28;20045;-67
2021/05/21 03:49:12;;;;;;;7.20;4.95;;;10.80;99.90;;;;;;5050082;28;20052;-67
2021/05/21 03:51:39;;;;;;;5.93;4.70;;;10.80;99.90;;;;;;5049068;28;20053;-68
2021/05/21 03:54:07;;;;;;;5.65;5.13;;;10.80;99.90;;;;;;5046196;28;20045;-67
2021/05/21 03:56:35;;;;;;;5.38;4.60;;;10.90;99.90;;;;;;5048547;28;20041;-67
2021/05/21 03:59:02;;;;;;;4.80;4.40;;;10.90;99.90;;;;;;5052405;28;20056;-67
2021/05/21 04:01:30;;;;;;;5.18;4.70;;;10.90;99.90;;;;;;5054472;28;20044;-68
2021/05/21 04:03:57;;;;;;;5.40;4.90;;;11.00;99.90;;;;;;5054267;28;20049;-68
2021/05/21 04:06:24;;;;;;;5.82;5.32;;;11.00;99.90;;;;;;5052135;28;20106;-68
2021/05/21 04:08:52;;;;;;;5.82;5.22;;;11.10;99.90;;;;;;5052535;28;20503;-68
2021/05/21 04:11:19;;;;;;;6.47;5.70;;;11.00;99.90;;;;;;5049655;28;20415;-68
2021/05/21 04:13:46;;;;;;;6.25;5.63;;;11.10;99.90;;;;;;5053708;28;20507;-68
2021/05/21 04:16:14;;;;;;;5.72;5.22;;;11.20;99.90;;;;;;5052472;28;20071;-68
2021/05/21 04:18:41;;;;;;;5.72;5.15;;;11.20;99.90;;;;;;5047332;28;20128;-68
2021/05/21 04:21:08;;;;;;;6.40;5.45;;;11.30;99.90;;;;;;5053000;28;20060;-68
2021/05/21 04:23:42;;;;;;;5.95;5.20;;;11.30;99.90;;;;;;5050770;28;20102;-68
2021/05/21 04:26:09;;;;;;;5.68;5.18;;;11.40;99.90;;;;;;5053266;28;20473;-67
2021/05/21 04:28:37;;;;;;;5.80;5.30;;;11.50;99.90;;;;;;5053021;28;20060;-68
2021/05/21 04:31:04;;;;;;;6.32;5.72;;;11.50;99.90;;;;;;5053595;28;20506;-68
2021/05/21 04:33:31;;;;;;;5.97;5.47;;;11.50;99.90;;;;;;5052071;28;20041;-68
2021/05/21 04:35:59;;;;;;;6.43;5.75;;;11.60;99.90;;;;;;5051582;28;20060;-67
2021/05/21 04:38:27;;;;;;;7.05;5.97;;;11.60;99.90;;;;;;5027901;28;20057;-67
2021/05/21 04:40:54;;;;;;;6.80;5.43;;;11.60;99.90;;;;;;5045137;28;20049;-68
2021/05/21 04:43:23;;;;;;;5.85;5.25;;;11.60;99.90;;;;;;5052616;28;20372;-67
2021/05/21 04:45:51;;;;;;;6.28;5.68;;;11.70;99.90;;;;;;5051745;28;20057;-68
2021/05/21 04:48:19;;;;;;;6.35;5.75;;;11.80;99.90;;;;;;5050278;28;20052;-68
2021/05/21 04:50:47;;;;;;;7.32;5.47;;;11.80;99.90;;;;;;5052020;28;20060;-68
2021/05/21 04:53:15;;;;;;;6.57;5.95;;;11.90;99.90;;;;;;5051983;28;20103;-68
2021/05/21 04:55:42;;;;;;;7.82;6.03;;;11.90;99.90;;;;;;5051742;28;20037;-68
2021/05/21 04:58:09;;;;;;;8.95;6.30;;;12.00;99.90;;;;;;5050077;28;20060;-68
2021/05/21 05:00:37;;;;;;;8.98;6.57;;;12.00;99.90;;;;;;5049493;28;20056;-67
2021/05/21 05:03:09;;;;;;;10.48;7.10;;;12.10;99.90;;;;;;5052511;28;20049;-68
2021/05/21 05:05:36;;;;;;;9.55;6.93;;;12.10;99.90;;;;;;5052315;28;20830;-67
2021/05/21 05:08:04;;;;;;;9.18;6.97;;;12.30;99.90;;;;;;5051648;28;20125;-67
2021/05/21 05:10:31;;;;;;;8.85;6.90;;;12.30;99.90;;;;;;5051192;28;20041;-68
2021/05/21 05:12:59;;;;;;;7.93;6.43;;;12.40;99.90;;;;;;5052274;28;20403;-68
2021/05/21 05:15:27;;;;;;;8.48;6.60;;;12.50;99.90;;;;;;5050454;28;20057;-67
2021/05/21 05:17:54;;;;;;;7.97;7.18;;;12.60;99.90;;;;;;5049654;28;20512;-68
2021/05/21 05:20:23;;;;;;;7.00;6.28;;;12.60;99.90;;;;;;5050183;28;20045;-67
2021/05/21 05:22:55;;;;;;;10.20;6.85;;;12.90;99.90;;;;;;5049419;28;20049;-68
2021/05/21 05:25:22;;;;;;;7.53;6.82;;;12.90;99.90;;;;;;5051212;28;20088;-68
2021/05/21 05:27:51;;;;;;;7.75;6.95;;;13.00;99.90;;;;;;5050193;28;20049;-68
2021/05/21 05:30:19;;;;;;;7.63;6.75;;;13.10;99.90;;;;;;5048888;28;20064;-68
2021/05/21 05:32:46;;;;;;;7.50;6.70;;;13.20;99.90;;;;;;5050078;28;20115;-68
2021/05/21 05:35:14;;;;;;;6.75;6.13;;;13.30;99.90;;;;;;5050173;28;20056;-67
2021/05/21 05:37:41;;;;;;;7.30;6.50;;;13.30;99.90;;;;;;5049814;28;20404;-68
2021/05/21 05:40:09;;;;;;;7.15;6.40;;;13.40;99.90;;;;;;5047266;28;20079;-68
2021/05/21 05:42:40;;;;;;;7.43;6.72;;;13.40;99.90;;;;;;5047350;28;20041;-67
2021/05/21 05:45:09;;;;;;;7.90;6.70;;;13.50;99.90;;;;;;5049365;28;20568;-68
2021/05/21 05:47:37;;;;;;;8.45;6.60;;;13.60;99.90;;;;;;5045285;28;20455;-68
2021/05/21 05:50:05;;;;;;;7.32;6.63;;;13.60;99.90;;;;;;5050920;28;20140;-68
2021/05/21 05:52:32;;;;;;;9.60;6.72;;;13.60;99.90;;;;;;5048996;28;20078;-68
2021/05/21 05:54:59;;;;;;;10.80;7.10;;;13.60;99.90;;;;;;5050365;28;20048;-67
2021/05/21 05:57:27;;;;;;;11.52;7.20;;;13.70;99.90;;;;;;5050789;28;20048;-67
2021/05/21 05:59:54;;;;;;;7.75;6.80;;;13.80;99.90;;;;;;5048472;28;20037;-67
2021/05/21 06:02:22;;;;;;;11.00;7.30;;;13.90;99.90;;;;;;5049294;28;20463;-67
2021/05/21 06:04:50;;;;;;;7.65;6.90;;;14.10;99.90;;;;;;5050325;28;20522;-68
2021/05/21 06:07:17;;;;;;;8.82;6.38;;;14.10;99.90;;;;;;5048815;28;20060;-68
2021/05/21 06:09:44;;;;;;;7.45;6.63;;;14.20;99.90;;;;;;5047944;28;20119;-68
2021/05/21 06:12:12;;;;;;;8.70;6.78;;;14.50;99.90;;;;;;5049846;28;20553;-68
2021/05/21 06:14:39;;;;;;;7.70;7.00;;;14.70;99.90;;;;;;5046950;28;20118;-68
2021/05/21 06:17:06;;;;;;;7.05;6.38;;;14.80;99.90;;;;;;5028415;28;20131;-68
2021/05/21 06:19:33;;;;;;;7.50;6.90;;;14.90;99.90;;;;;;5045965;28;20068;-67
2021/05/21 06:22:01;;;;;;;7.93;7.22;;;15.00;99.90;;;;;;5049262;28;20044;-68
2021/05/21 06:24:29;;;;;;;8.63;7.07;;;15.10;99.90;;;;;;5049133;28;20406;-68
2021/05/21 06:27:19;;;;;;;7.32;6.80;;;15.30;99.90;;;;;;5046763;28;20492;-68
2021/05/21 06:29:44;;;;;;;10.73;7.10;;;15.30;99.90;;;;;;5046127;28;20064;-68
2021/05/21 06:32:11;;;;;;;8.27;7.10;;;15.10;99.90;;;;;;5044203;28;20045;-68
2021/05/21 06:34:39;;;;;;;7.80;7.10;;;15.10;99.90;;;;;;5045103;28;20416;-69
2021/05/21 06:37:06;;;;;;;7.78;7.07;;;15.10;99.90;;;;;;5045803;28;20052;-68
2021/05/21 06:39:33;;;;;;;7.57;6.97;;;15.00;99.90;;;;;;5046547;28;20049;-68
2021/05/21 06:42:01;;;;;;;7.60;7.00;;;15.10;99.90;;;;;;5045761;28;20049;-67
2021/05/21 06:44:31;;;;;;;7.80;7.13;;;15.20;99.90;;;;;;5050346;28;20496;-68
2021/05/21 06:46:58;;;;;;;7.60;6.90;;;15.40;99.90;;;;;;5047199;28;20053;-68
2021/05/21 06:49:26;;;;;;;8.25;7.55;;;15.50;99.90;;;;;;5049111;28;20041;-68
2021/05/21 06:51:53;;;;;;;7.68;7.07;;;15.50;99.90;;;;;;5048139;28;20057;-67
2021/05/21 06:54:21;;;;;;;7.70;7.00;;;15.70;99.90;;;;;;5043661;28;20114;-67
2021/05/21 06:56:48;;;;;;;11.20;7.30;;;15.90;99.90;;;;;;5048336;28;20156;-68
2021/05/21 06:59:15;;;;;;;8.95;7.22;;;16.00;99.90;;;;;;5045595;28;20052;-67
2021/05/21 07:01:44;;;;;;;7.75;7.05;;;16.10;99.90;;;;;;5045629;28;20043;-67
2021/05/21 07:04:12;;;;;;;7.72;7.13;;;16.20;99.90;;;;;;5050006;28;20045;-67
2021/05/21 07:06:39;;;;;;;15.45;7.82;;;16.10;99.90;;;;;;5047470;28;20068;-68
2021/05/21 07:09:06;;;;;;;7.82;7.10;;;16.20;99.90;;;;;;5048897;28;20080;-67
2021/05/21 07:11:34;;;;;;;8.13;7.38;;;16.20;99.90;;;;;;5047678;28;20074;-67
2021/05/21 07:14:03;;;;;;;9.65;6.93;;;16.20;99.90;;;;;;5050968;28;20041;-67
2021/05/21 07:16:30;;;;;;;17.52;8.57;;;16.10;99.90;;;;;;5048647;28;20052;-68
2021/05/21 07:18:58;;;;;;;8.18;7.35;;;16.00;99.90;;;;;;5045455;28;20049;-68
2021/05/21 07:21:26;;;;;;;9.10;6.93;;;16.00;99.90;;;;;;5047265;28;20119;-67
2021/05/21 07:23:54;;;;;;;8.35;7.00;;;16.20;99.90;;;;;;5047503;28;20103;-67
2021/05/21 07:26:23;;;;;;;7.20;6.60;;;16.20;99.90;;;;;;5047372;28;20064;-67
2021/05/21 07:28:50;;;;;;;7.25;6.60;;;16.20;99.90;;;;;;5048099;28;20053;-67
2021/05/21 07:31:18;;;;;;;7.72;7.10;;;16.40;99.90;;;;;;5049796;28;20053;-67
2021/05/21 07:33:45;;;;;;;7.72;7.10;;;16.30;99.90;;;;;;5048997;28;20077;-67
2021/05/21 07:36:13;;;;;;;8.10;7.40;;;16.40;99.90;;;;;;5047967;28;20475;-67
2021/05/21 07:38:41;;;;;;;7.70;7.10;;;16.20;99.90;;;;;;5044193;28;20052;-67
2021/05/21 07:41:09;;;;;;;8.20;7.50;;;16.20;99.90;;;;;;5046249;28;20040;-67
2021/05/21 07:43:37;;;;;;;8.13;7.38;;;16.20;99.90;;;;;;5047954;28;20056;-68
2021/05/21 07:46:09;;;;;;;7.25;6.65;;;16.20;99.90;;;;;;5047074;28;20044;-68
2021/05/21 07:48:37;;;;;;;8.30;6.90;;;16.20;99.90;;;;;;5041641;28;20052;-67
2021/05/21 07:51:04;;;;;;;9.35;7.28;;;16.40;99.90;;;;;;5049156;28;20888;-68
2021/05/21 07:53:33;;;;;;;8.20;7.40;;;16.40;99.90;;;;;;5047344;28;20049;-67
2021/05/21 07:56:03;;;;;;;7.80;7.00;;;16.50;99.90;;;;;;5049018;28;20049;-68
2021/05/21 07:58:30;;;;;;;7.70;7.00;;;16.40;99.90;;;;;;5047495;28;20480;-69
2021/05/21 08:00:58;;;;;;;7.72;7.13;;;16.30;99.90;;;;;;5041686;28;20060;-68
2021/05/21 08:03:26;;;;;;;8.30;7.60;;;16.30;99.90;;;;;;5044930;28;20048;-68
2021/05/21 08:05:53;;;;;;;8.65;7.20;;;16.30;99.90;;;;;;5045898;28;20614;-68
2021/05/21 08:08:21;;;;;;;8.45;7.00;;;16.40;99.90;;;;;;5047181;28;20083;-68
2021/05/21 08:10:56;;;;;;;8.30;7.65;;;16.60;99.90;;;;;;5047609;28;20059;-68
2021/05/21 08:13:24;;;;;;;7.90;7.30;;;16.60;99.90;;;;;;5047023;28;20095;-68
2021/05/21 08:15:52;;;;;;;8.85;7.72;;;16.70;99.90;;;;;;5046785;28;20046;-68
2021/05/21 08:18:19;;;;;;;10.50;7.40;;;17.00;99.90;;;;;;5048689;28;20073;-67
2021/05/21 08:20:49;;;;;;;9.68;7.35;;;17.20;99.90;;;;;;5048013;28;20065;-68
2021/05/21 08:23:17;;;;;;;11.23;7.65;;;17.20;99.90;;;;;;5049069;28;20186;-68
2021/05/21 08:25:45;;;;;;;9.05;7.18;;;17.40;99.90;;;;;;5046617;28;20132;-68
2021/05/21 08:28:13;;;;;;;8.02;7.25;;;17.30;99.90;;;;;;5048172;28;20057;-68
2021/05/21 08:30:43;;;;;;;8.05;7.45;;;17.40;99.90;;;;;;5047293;28;20389;-68
2021/05/21 08:33:10;;;;;;;8.30;7.50;;;17.60;99.90;;;;;;5042632;28;20041;-68
2021/05/21 08:35:38;;;;;;;9.60;7.65;;;17.50;99.90;;;;;;5047495;28;20045;-68
2021/05/21 08:38:06;;;;;;;8.77;7.65;;;17.50;99.90;;;;;;5045889;28;20060;-68
2021/05/21 08:40:36;;;;;;;8.57;7.63;;;17.40;99.90;;;;;;5048900;28;20525;-68
2021/05/21 08:43:08;;;;;;;8.43;7.57;;;17.40;99.90;;;;;;5044513;28;20049;-68
2021/05/21 08:45:36;;;;;;;;;;;17.40;99.90;;;;;;5048236;28;20045;-68
2021/05/21 08:48:04;;;;;;;8.85;7.90;;;17.60;99.90;;;;;;5051342;28;19962;-68
2021/05/21 08:50:32;;;;;;;8.52;7.47;;;17.40;99.90;;;;;;5053250;28;20577;-67
2021/05/21 08:52:59;;;;;;;7.50;6.90;;;17.40;99.90;;;;;;5051647;28;20049;-68
2021/05/21 08:55:27;;;;;;;8.05;7.43;;;17.30;99.90;;;;;;5051364;28;20103;-68
2021/05/21 08:57:55;;;;;;;8.13;7.30;;;17.20;99.90;;;;;;5050915;28;20049;-68
2021/05/21 09:00:22;;;;;;;7.70;7.03;;;17.00;99.90;;;;;;5051789;28;20083;-68
2021/05/21 09:02:50;;;;;;;7.75;7.00;;;17.10;99.90;;;;;;5050112;28;20057;-68
2021/05/21 09:05:18;;;;;;;14.02;7.80;;;17.20;99.90;;;;;;5048753;28;20040;-68
2021/05/21 09:07:46;;;;;;;8.25;7.60;;;17.20;99.90;;;;;;5032805;28;20049;-68
2021/05/21 09:10:19;;;;;;;8.27;7.55;;;17.30;99.90;;;;;;5054355;28;20061;-68
2021/05/21 09:12:53;;;;;;;7.30;6.60;;;17.40;99.90;;;;;;5054550;28;20499;-68
2021/05/21 09:15:26;;;;;;;8.07;7.40;;;17.20;99.90;;;;;;5051344;28;20107;-68
2021/05/21 09:17:54;;;;;;;8.77;7.68;;;16.80;99.90;;;;;;5050172;28;20069;-68
2021/05/21 09:20:32;;;;;;;8.15;7.55;;;16.90;99.90;;;;;;5053901;28;20037;-67
2021/05/21 09:23:13;;;;;;;8.48;7.88;;;17.10;99.90;;;;;;5049030;28;20041;-68
2021/05/21 09:25:45;;;;;;;;;;;17.30;99.90;;;;;;5054179;28;20035;-68
2021/05/21 09:28:40;;;;;;;9.87;7.23;;;17.30;99.90;;;;;;5016166;28;19939;-67
2021/05/21 09:31:10;;;;;;;8.02;7.43;;;17.30;99.90;;;;;;5048282;28;20049;-67
2021/05/21 09:33:40;;;;;;;8.20;6.80;;;17.30;99.90;;;;;;5051886;28;20519;-68
2021/05/21 09:36:09;;;;;;;7.72;7.03;;;17.30;99.90;;;;;;5052839;28;20049;-68
2021/05/21 09:38:51;;;;;;;7.50;6.90;;;17.30;99.90;;;;;;5049856;28;20130;-68
2021/05/21 09:41:49;;;;;;;9.55;8.63;;;17.40;99.90;;;;;;5052808;28;20064;-68
2021/05/21 09:44:17;;;;;;;9.55;8.65;;;17.40;99.90;;;;;;5049681;28;20044;-69
2021/05/21 09:46:48;;;;;;;7.40;6.80;;;17.50;99.90;;;;;;5053753;28;20052;-69
2021/05/21 09:49:37;;;;;;;9.80;7.40;;;17.60;99.90;;;;;;5049020;28;20044;-68
2021/05/21 09:52:07;;;;;;;9.55;8.23;;;17.50;99.90;;;;;;5052083;28;20522;-68
2021/05/21 09:54:48;;;;;;;7.57;6.97;;;17.60;99.90;;;;;;5049611;28;20037;-68
2021/05/21 09:57:16;;;;;;;9.82;7.18;;;17.40;99.90;;;;;;5047378;28;20037;-69
2021/05/21 09:59:46;;;;;;;7.68;7.03;;;17.60;99.90;;;;;;5048278;28;20068;-68
2021/05/21 10:02:28;;;;;;;7.53;6.93;;;17.60;99.90;;;;;;5049463;28;20045;-69
2021/05/21 10:05:02;;;;;;;8.23;7.40;;;17.60;99.90;;;;;;5049793;28;20052;-69
2021/05/21 10:07:29;;;;;;;8.27;7.57;;;17.60;99.90;;;;;;5047442;28;20064;-69
2021/05/21 10:09:57;;;;;;;8.98;8.13;;;17.50;99.90;;;;;;5051135;28;20052;-69
2021/05/21 10:12:25;;;;;;;8.13;7.43;;;17.60;99.90;;;;;;5050123;28;20052;-68
2021/05/21 10:14:53;;;;;;;8.00;7.30;;;17.40;99.90;;;;;;5051519;28;20454;-68
2021/05/21 10:17:23;;;;;;;8.23;7.43;;;17.30;99.90;;;;;;5046935;28;20137;-69
2021/05/21 10:19:56;;;;;;;8.43;7.63;;;17.40;99.90;;;;;;5048922;28;20053;-68
2021/05/21 10:22:25;;;;;;;8.10;7.50;;;17.40;99.90;;;;;;5050696;28;20041;-68
2021/05/21 10:25:01;;;;;;;8.35;7.85;;;17.20;99.90;;;;;;5050863;28;20733;-69
2021/05/21 10:27:31;;;;;;;8.40;7.70;;;17.20;99.90;;;;;;5049391;28;20140;-68
2021/05/21 10:30:05;;;;;;;14.10;11.95;;;17.00;99.90;;;;;;5049256;28;20083;-68
2021/05/21 10:32:36;;;;;;;9.73;8.85;;;17.00;99.90;;;;;;5049373;28;20133;-68
2021/05/21 10:35:19;;;;;;;8.38;7.57;;;17.10;99.90;;;;;;5047237;28;20060;-68
2021/05/21 10:38:25;;;;;;;7.85;7.30;;;17.20;99.90;;;;;;5049239;28;20127;-68
2021/05/21 10:41:17;;;;;;;8.23;7.60;;;17.10;99.90;;;;;;5050243;28;20036;-67
2021/05/21 10:43:54;;;;;;;8.15;7.45;;;17.00;99.90;;;;;;5048899;28;20065;-67
2021/05/21 10:46:39;;;;;;;8.70;7.90;;;17.10;99.90;;;;;;5042330;28;20415;-67
2021/05/21 10:49:18;;;;;;;9.18;7.30;;;17.20;99.90;;;;;;5045338;28;20460;-67
2021/05/21 10:52:05;;;;;;;8.40;7.60;;;17.20;99.90;;;;;;5048035;28;20041;-68
2021/05/21 10:54:44;;;;;;;8.57;7.75;;;17.10;99.90;;;;;;5048559;28;20251;-68
2021/05/21 10:57:16;;;;;;;8.68;7.88;;;17.10;99.90;;;;;;5050608;28;20036;-68
2021/05/21 10:59:55;;;;;;;8.18;7.38;;;17.00;99.90;;;;;;5052543;28;20117;-69
2021/05/21 11:02:24;;;;;;;8.80;7.88;;;16.90;99.90;;;;;;5052306;28;20356;-69
2021/05/21 11:04:54;;;;;;;8.38;7.68;;;16.80;99.90;;;;;;5051889;28;20531;-68
2021/05/21 11:07:42;;;;;;;8.95;8.15;;;16.90;99.90;;;;;;5049452;28;20118;-68
2021/05/21 11:10:32;;;;;;;8.43;7.72;;;16.90;99.90;;;;;;5047456;28;20059;-69
2021/05/21 11:13:07;;;;;;;7.78;7.05;;;16.80;99.90;;;;;;5051001;28;20052;-68
2021/05/21 11:15:35;;;;;;;8.88;8.05;;;16.90;99.90;;;;;;5049282;28;20049;-67
2021/05/21 11:18:20;;;;;;;8.73;7.93;;;16.90;99.90;;;;;;5048144;28;20094;-68
2021/05/21 11:21:09;;;;;;;8.38;7.60;;;17.00;99.90;;;;;;5064473;28;20044;-67
2021/05/21 11:23:54;;;;;;;9.02;8.13;;;17.00;99.90;;;;;;5048497;28;20060;-67
2021/05/21 11:26:27;;;;;;;8.85;8.15;;;17.00;99.90;;;;;;5047639;28;20076;-68
2021/05/21 11:28:59;;;;;;;8.73;7.93;;;17.10;99.90;;;;;;5048192;28;20396;-67
2021/05/21 11:31:29;;;;;;;8.80;8.00;;;17.20;99.90;;;;;;5019944;28;20037;-67
2021/05/21 11:34:00;;;;;;;8.60;7.68;;;17.40;99.90;;;;;;5042553;28;20148;-67
2021/05/21 11:36:31;;;;;;;8.20;7.60;;;17.50;99.90;;;;;;5042671;28;20045;-67
2021/05/21 11:38:59;;;;;;;9.00;8.30;;;17.70;99.90;;;;;;5048839;28;20044;-68
2021/05/21 11:41:41;;;;;;;8.75;8.00;;;17.90;99.90;;;;;;5043326;28;20052;-67
2021/05/21 11:44:10;;;;;;;11.27;7.85;;;18.30;99.90;;;;;;5049549;28;20091;-67
2021/05/21 11:46:40;;;;;;;8.55;7.75;;;18.60;99.90;;;;;;5047637;28;20037;-68
2021/05/21 11:49:10;;;;;;;9.13;8.43;;;18.80;99.90;;;;;;5044491;28;20033;-67
2021/05/21 11:51:39;;;;;;;9.02;8.23;;;18.80;99.90;;;;;;5048895;28;20045;-67
2021/05/21 11:54:07;;;;;;;8.25;7.65;;;18.80;99.90;;;;;;5047698;28;20037;-68
2021/05/21 11:56:38;;;;;;;8.60;7.90;;;19.30;99.90;;;;;;5047299;28;20091;-68
2021/05/21 11:59:14;;;;;;;8.80;8.07;;;19.10;99.90;;;;;;5048316;28;20376;-67
2021/05/21 12:01:57;;;;;;;7.97;7.40;;;19.10;99.90;;;;;;5061241;28;20116;-67
2021/05/21 12:04:38;;;;;;;8.55;7.80;;;18.80;99.90;;;;;;5044539;28;20072;-67
2021/05/21 12:07:05;;;;;;;8.20;7.60;;;18.80;99.90;;;;;;5048785;28;20518;-67
2021/05/21 12:09:33;;;;;;;8.40;7.70;;;19.00;99.90;;;;;;5046458;28;20048;-67
2021/05/21 12:12:00;;;;;;;8.50;7.90;;;18.80;99.90;;;;;;5048798;28;20046;-67
2021/05/21 12:14:29;;;;;;;8.63;7.82;;;19.00;99.90;;;;;;5050380;28;20129;-67
2021/05/21 12:17:00;;;;;;;8.00;7.40;;;19.00;99.90;;;;;;5047853;28;20056;-67
2021/05/21 12:19:28;;;;;;;8.65;7.95;;;19.10;99.90;;;;;;5047731;28;20073;-67
2021/05/21 12:21:56;;;;;;;8.77;8.07;;;19.00;99.90;;;;;;5050944;28;20048;-67
2021/05/21 12:24:26;;;;;;;7.90;7.40;;;19.10;99.90;;;;;;5050503;28;20041;-67
2021/05/21 12:26:54;;;;;;;8.35;7.70;;;18.80;99.90;;;;;;5051034;28;20041;-67
2021/05/21 12:29:22;;;;;;;8.35;7.75;;;18.50;99.90;;;;;;5050078;28;20049;-69
2021/05/21 12:32:00;;;;;;;8.48;7.70;;;18.70;99.90;;;;;;5049983;28;20560;-67
2021/05/21 12:34:29;;;;;;;9.10;8.30;;;18.80;99.90;;;;;;5047780;28;20049;-67
2021/05/21 12:37:06;;;;;;;8.43;7.72;;;18.90;99.90;;;;;;5048263;28;20424;-66
2021/05/21 12:39:38;;;;;;;9.43;7.80;;;19.10;99.90;;;;;;5052229;28;20063;-69
2021/05/21 12:42:06;;;;;;;8.38;7.78;;;19.40;99.90;;;;;;5047460;28;20041;-68
2021/05/21 12:44:43;;;;;;;8.40;7.60;;;19.70;99.90;;;;;;5050126;28;20045;-68
2021/05/21 12:47:14;;;;;;;8.35;7.75;;;19.60;99.90;;;;;;5049462;28;20045;-67
2021/05/21 12:49:46;;;;;;;8.65;7.90;;;20.00;99.90;;;;;;5049854;28;20041;-68
2021/05/21 12:52:14;;;;;;;9.43;8.77;;;20.10;99.90;;;;;;5029930;28;20072;-68
2021/05/21 12:54:43;;;;;;;9.23;8.55;;;20.60;99.90;;;;;;5050084;28;20045;-69
2021/05/21 12:57:25;;;;;;;8.82;8.02;;;20.40;99.90;;;;;;5051238;28;20463;-67
2021/05/21 12:59:59;;;;;;;9.70;8.70;;;19.60;99.90;;;;;;5050300;28;20364;-68
2021/05/21 13:02:29;;;;;;;8.50;7.97;;;19.10;99.90;;;;;;5048524;28;20778;-68